Ana Sayfa
METAR-TAF:

METAR-TAF

Havaalanları :

Coleman, Teksas, Amerika Birleşik Devletleri

Enlem: 31-50-28N, Boylam: 099-24-12W, yükseklik: 517 m

Güncel hava durumu gözlemi

Rapor saat 22:55 UTC de 25 dakika önce yapıldı.
Rüzgar güneydoğudan 14 kt ve 18 kt'a kadar ani rüzgarlar
Sıcaklık 37°C
Nem 27%
Basınç 1012 hPa
Görüş mesafesi: 16.1 km
Açık gökyüzü

METAR: KCOM 182255Z AUTO 14014G18KT 10SM CLR 37/15 A2989 RMK AO2 T03710149

Saat: 17:20 (23:20 UTC)


TAF: eksik

4.000'den fazla havaalanı için hava durumu gözlemleri ve tahminleri (METAR ve TAF raporları).

Kullanılabilir istasyonlar harita üzerinde sarı ve kırmızı noktalarla gösterilir.

İstasyonun adını görmek için fareyi noktanın üzerinde gezdirin.

Sonrasında hava gözlem ve tahminlerini görmek için tıklayın.

Haritayı değiştirmek için: yaklaştırmak için siyah artı işaretli yeşil düğmeye ve uzaklaştırmak için de eksi işaretli düğmeye hızla tıklayın; bitişik haritalar için yeşil okları kullanın.


METAR-TAF: